createdAt,value
2023-07-06T00:00:02.339Z,578.00
2023-07-06T00:01:02.367Z,580.00
2023-07-06T00:02:02.454Z,581.00
2023-07-06T00:03:02.461Z,580.00
2023-07-06T00:04:02.492Z,579.00
2023-07-06T00:05:02.447Z,580.00
2023-07-06T00:06:02.468Z,580.00
2023-07-06T00:07:02.497Z,581.00
2023-07-06T00:08:02.517Z,579.00
2023-07-06T00:09:02.538Z,578.00
2023-07-06T00:10:02.571Z,578.00
2023-07-06T00:11:02.596Z,578.00
2023-07-06T00:12:02.616Z,579.00
2023-07-06T00:13:02.639Z,578.00
2023-07-06T00:14:02.722Z,578.00
2023-07-06T00:15:02.694Z,578.00
2023-07-06T00:16:02.728Z,576.00
2023-07-06T00:17:02.729Z,574.00
2023-07-06T00:18:02.814Z,575.00
2023-07-06T00:19:02.789Z,574.00
2023-07-06T00:20:02.810Z,576.00
2023-07-06T00:21:02.822Z,575.00
2023-07-06T00:22:02.832Z,575.00
2023-07-06T00:23:02.862Z,576.00
2023-07-06T00:24:02.879Z,578.00
2023-07-06T00:25:02.911Z,579.00
2023-07-06T00:26:02.935Z,579.00
2023-07-06T00:27:02.958Z,579.00
2023-07-06T00:28:02.981Z,580.00
2023-07-06T00:29:02.999Z,580.00
2023-07-06T00:30:03.034Z,580.00
2023-07-06T00:31:03.045Z,583.00
2023-07-06T00:32:03.088Z,581.00
2023-07-06T00:33:03.097Z,579.00
2023-07-06T00:34:03.106Z,579.00
2023-07-06T00:35:03.129Z,579.00
2023-07-06T00:36:03.145Z,580.00
2023-07-06T00:37:03.179Z,582.00
2023-07-06T00:38:03.176Z,584.00
2023-07-06T00:39:03.215Z,583.00
2023-07-06T00:40:03.228Z,582.00
2023-07-06T00:41:03.248Z,582.00
2023-07-06T00:42:03.268Z,583.00
2023-07-06T00:43:03.291Z,584.00
2023-07-06T00:44:03.310Z,585.00
2023-07-06T00:45:03.328Z,584.00
2023-07-06T00:46:03.369Z,579.00
2023-07-06T00:47:03.366Z,577.00
2023-07-06T00:48:03.428Z,576.00
2023-07-06T00:49:03.412Z,574.00
2023-07-06T00:50:03.449Z,577.00
2023-07-06T00:51:03.466Z,577.00
2023-07-06T00:52:03.487Z,577.00
2023-07-06T00:53:03.524Z,578.00
2023-07-06T00:54:03.528Z,576.00
2023-07-06T00:55:03.559Z,576.00
2023-07-06T00:56:03.579Z,575.00
2023-07-06T00:57:03.605Z,576.00
2023-07-06T00:58:03.657Z,577.00
2023-07-06T00:59:03.682Z,576.00
2023-07-06T01:00:03.686Z,578.00
2023-07-06T01:01:03.707Z,578.00
2023-07-06T01:02:04.656Z,576.00
2023-07-06T01:03:03.760Z,575.00
2023-07-06T01:04:03.769Z,577.00
2023-07-06T01:05:03.817Z,577.00
2023-07-06T01:06:03.859Z,577.00
2023-07-06T01:07:03.905Z,576.00
2023-07-06T01:08:03.914Z,575.00
2023-07-06T01:09:03.979Z,573.00
2023-07-06T01:10:04.035Z,573.00
2023-07-06T01:11:03.983Z,570.00
2023-07-06T01:12:04.205Z,568.00
2023-07-06T01:13:04.045Z,568.00
2023-07-06T01:14:04.129Z,567.00
2023-07-06T01:15:04.139Z,567.00
2023-07-06T01:16:04.167Z,568.00
2023-07-06T01:17:04.154Z,565.00
2023-07-06T01:18:04.204Z,565.00
2023-07-06T01:19:04.249Z,566.00
2023-07-06T01:20:04.286Z,566.00
2023-07-06T01:21:04.307Z,567.00
2023-07-06T01:22:04.306Z,567.00
2023-07-06T01:23:04.381Z,565.00
2023-07-06T01:24:04.380Z,564.00
2023-07-06T01:25:04.404Z,567.00
2023-07-06T01:26:04.425Z,566.00
2023-07-06T01:27:04.423Z,568.00
2023-07-06T01:28:04.425Z,568.00
2023-07-06T01:29:04.521Z,569.00
2023-07-06T01:30:04.421Z,569.00
2023-07-06T01:31:04.417Z,568.00
2023-07-06T01:32:04.397Z,568.00
2023-07-06T01:33:04.443Z,568.00
2023-07-06T01:34:04.490Z,566.00
2023-07-06T01:35:04.499Z,565.00
2023-07-06T01:36:04.533Z,564.00
2023-07-06T01:37:04.579Z,562.00
2023-07-06T01:38:04.599Z,560.00
2023-07-06T01:39:04.624Z,559.00
2023-07-06T01:40:04.651Z,559.00
2023-07-06T01:41:04.668Z,561.00
2023-07-06T01:42:04.676Z,563.00
2023-07-06T01:43:04.674Z,563.00
2023-07-06T01:44:04.660Z,563.00
2023-07-06T01:45:04.658Z,564.00
2023-07-06T01:46:04.696Z,563.00
2023-07-06T01:47:04.734Z,564.00
2023-07-06T01:48:04.746Z,567.00
2023-07-06T01:49:04.740Z,564.00
2023-07-06T01:50:04.762Z,564.00
2023-07-06T01:51:04.755Z,564.00
2023-07-06T01:52:04.826Z,564.00
2023-07-06T01:53:04.827Z,565.00
2023-07-06T01:54:04.882Z,566.00
2023-07-06T01:55:04.881Z,565.00
2023-07-06T01:56:04.900Z,564.00
2023-07-06T01:57:04.937Z,563.00
2023-07-06T01:58:04.951Z,564.00
2023-07-06T01:59:04.959Z,563.00
2023-07-06T02:00:04.957Z,564.00
2023-07-06T02:01:05.024Z,563.00
2023-07-06T02:02:05.012Z,562.00
2023-07-06T02:03:05.020Z,564.00
2023-07-06T02:04:04.988Z,565.00
2023-07-06T02:05:05.001Z,566.00
2023-07-06T02:06:05.008Z,569.00
2023-07-06T02:07:05.027Z,570.00
2023-07-06T02:08:05.051Z,569.00
2023-07-06T02:09:05.060Z,571.00
2023-07-06T02:10:05.018Z,573.00
2023-07-06T02:11:05.015Z,571.00
2023-07-06T02:12:05.006Z,570.00
2023-07-06T02:13:05.030Z,569.00
2023-07-06T02:14:05.078Z,567.00
2023-07-06T02:15:05.079Z,565.00
2023-07-06T02:16:05.074Z,563.00
2023-07-06T02:17:05.106Z,564.00
2023-07-06T02:18:05.114Z,563.00
2023-07-06T02:19:05.190Z,565.00
2023-07-06T02:20:05.203Z,565.00
2023-07-06T02:21:05.266Z,568.00
2023-07-06T02:22:05.264Z,568.00
2023-07-06T02:23:05.300Z,569.00
2023-07-06T02:24:05.338Z,571.00
2023-07-06T02:25:05.373Z,570.00
2023-07-06T02:26:05.366Z,569.00
2023-07-06T02:27:05.386Z,568.00
2023-07-06T02:28:05.398Z,568.00
2023-07-06T02:29:05.393Z,570.00
2023-07-06T02:30:05.402Z,569.00
2023-07-06T02:31:05.422Z,568.00
2023-07-06T02:32:05.424Z,568.00
2023-07-06T02:33:05.393Z,567.00
2023-07-06T02:34:05.366Z,568.00
2023-07-06T02:35:05.352Z,568.00
2023-07-06T02:36:05.328Z,569.00
2023-07-06T02:37:05.329Z,567.00
2023-07-06T02:38:05.310Z,565.00
2023-07-06T02:39:05.330Z,563.00
2023-07-06T02:40:05.307Z,561.00
2023-07-06T02:41:05.313Z,561.00
2023-07-06T02:42:05.285Z,562.00
2023-07-06T02:43:05.384Z,563.00
2023-07-06T02:44:05.341Z,565.00
2023-07-06T02:45:05.360Z,568.00
2023-07-06T02:46:05.386Z,568.00
2023-07-06T02:47:05.271Z,573.00
2023-07-06T02:48:05.376Z,573.00
2023-07-06T02:49:05.285Z,571.00
2023-07-06T02:50:05.271Z,568.00
2023-07-06T02:51:05.240Z,568.00
2023-07-06T02:52:05.217Z,568.00
2023-07-06T02:53:05.194Z,570.00
2023-07-06T02:54:05.182Z,572.00
2023-07-06T02:55:05.168Z,570.00
2023-07-06T02:56:05.179Z,569.00
2023-07-06T02:57:05.191Z,571.00
2023-07-06T02:58:05.232Z,572.00
2023-07-06T02:59:05.192Z,571.00
2023-07-06T03:00:05.213Z,569.00
2023-07-06T03:01:05.244Z,568.00
2023-07-06T03:02:05.246Z,568.00
2023-07-06T03:03:05.225Z,570.00
2023-07-06T03:04:05.237Z,571.00
2023-07-06T03:05:05.306Z,572.00
2023-07-06T03:06:05.235Z,572.00
2023-07-06T03:07:05.253Z,571.00
2023-07-06T03:08:05.198Z,572.00
2023-07-06T03:09:05.176Z,573.00
2023-07-06T03:10:05.182Z,574.00
2023-07-06T03:11:05.211Z,573.00
2023-07-06T03:12:05.200Z,572.00
2023-07-06T03:13:05.185Z,571.00
2023-07-06T03:14:05.224Z,570.00
2023-07-06T03:15:05.321Z,572.00
2023-07-06T03:16:05.208Z,572.00
2023-07-06T03:17:05.192Z,572.00
2023-07-06T03:18:05.162Z,572.00
2023-07-06T03:19:05.130Z,572.00
2023-07-06T03:20:05.100Z,571.00
2023-07-06T03:21:05.090Z,572.00
2023-07-06T03:22:05.075Z,571.00
2023-07-06T03:23:05.053Z,569.00
2023-07-06T03:24:05.029Z,567.00
2023-07-06T03:25:05.086Z,567.00
2023-07-06T03:26:04.963Z,566.00
2023-07-06T03:27:04.971Z,567.00
2023-07-06T03:28:04.919Z,567.00
2023-07-06T03:29:04.927Z,565.00
2023-07-06T03:30:04.894Z,564.00
2023-07-06T03:31:04.864Z,564.00
2023-07-06T03:32:04.881Z,564.00
2023-07-06T03:33:04.878Z,563.00
2023-07-06T03:34:04.809Z,566.00
2023-07-06T03:35:04.795Z,567.00
2023-07-06T03:36:04.761Z,566.00
2023-07-06T03:37:04.737Z,568.00
2023-07-06T03:38:04.712Z,566.00
2023-07-06T03:39:04.702Z,564.00
2023-07-06T03:40:04.711Z,564.00
2023-07-06T03:41:04.699Z,565.00
2023-07-06T03:42:04.685Z,565.00
2023-07-06T03:43:04.676Z,565.00
2023-07-06T03:44:04.647Z,568.00
2023-07-06T03:45:04.637Z,568.00
2023-07-06T03:46:04.711Z,565.00
2023-07-06T03:47:04.605Z,563.00
2023-07-06T03:48:04.590Z,565.00
2023-07-06T03:49:04.751Z,566.00
2023-07-06T03:50:04.569Z,568.00
2023-07-06T03:51:04.552Z,568.00
2023-07-06T03:52:04.532Z,568.00
2023-07-06T03:53:04.522Z,566.00
2023-07-06T03:54:04.500Z,566.00
2023-07-06T03:55:04.482Z,566.00
2023-07-06T03:56:04.475Z,566.00
2023-07-06T03:57:04.470Z,567.00
2023-07-06T03:58:06.017Z,567.00
2023-07-06T03:59:04.469Z,566.00
2023-07-06T04:00:04.435Z,563.00
2023-07-06T04:01:04.482Z,563.00
2023-07-06T04:02:04.406Z,564.00
2023-07-06T04:03:04.527Z,562.00
2023-07-06T04:04:04.452Z,561.00
2023-07-06T04:05:04.350Z,563.00
2023-07-06T04:06:04.450Z,564.00
2023-07-06T04:07:04.322Z,565.00
2023-07-06T04:08:04.312Z,564.00
2023-07-06T04:09:04.329Z,564.00
2023-07-06T04:10:04.355Z,565.00
2023-07-06T04:11:04.300Z,568.00
2023-07-06T04:12:04.272Z,569.00
2023-07-06T04:13:04.268Z,566.00
2023-07-06T04:14:04.298Z,566.00
2023-07-06T04:15:04.247Z,566.00
2023-07-06T04:16:04.306Z,566.00
2023-07-06T04:17:04.218Z,565.00
2023-07-06T04:18:04.241Z,565.00
2023-07-06T04:19:04.266Z,564.00
2023-07-06T04:20:04.191Z,563.00
2023-07-06T04:21:04.164Z,562.00
2023-07-06T04:22:04.149Z,564.00
2023-07-06T04:23:04.362Z,563.00
2023-07-06T04:24:04.104Z,565.00
2023-07-06T04:25:04.096Z,563.00
2023-07-06T04:26:04.073Z,566.00
2023-07-06T04:27:04.062Z,567.00
2023-07-06T04:28:04.127Z,566.00
2023-07-06T04:29:04.014Z,564.00
2023-07-06T04:30:03.976Z,562.00
2023-07-06T04:31:04.074Z,565.00
2023-07-06T04:32:03.954Z,566.00
2023-07-06T04:33:03.949Z,569.00
2023-07-06T04:34:03.904Z,571.00
2023-07-06T04:35:03.854Z,574.00
2023-07-06T04:36:03.877Z,574.00
2023-07-06T04:37:03.827Z,573.00
2023-07-06T04:38:03.829Z,574.00
2023-07-06T04:39:03.817Z,576.00
2023-07-06T04:40:03.804Z,576.00
2023-07-06T04:41:03.795Z,579.00
2023-07-06T04:42:03.835Z,581.00
2023-07-06T04:43:03.803Z,580.00
2023-07-06T04:44:03.785Z,577.00
2023-07-06T04:45:03.766Z,577.00
2023-07-06T04:46:03.743Z,571.00
2023-07-06T04:47:03.804Z,571.00
2023-07-06T04:48:03.772Z,570.00
2023-07-06T04:49:03.788Z,570.00
2023-07-06T04:50:03.754Z,570.00
2023-07-06T04:51:03.742Z,567.00
2023-07-06T04:52:03.733Z,568.00
2023-07-06T04:53:03.754Z,566.00
2023-07-06T04:54:03.735Z,564.00
2023-07-06T04:55:03.718Z,564.00
2023-07-06T04:56:03.704Z,562.00
2023-07-06T04:57:03.719Z,563.00
2023-07-06T04:58:03.738Z,562.00
2023-07-06T04:59:03.727Z,560.00
2023-07-06T05:00:03.694Z,555.00
2023-07-06T05:01:03.754Z,557.00
2023-07-06T05:02:03.724Z,556.00
2023-07-06T05:03:03.842Z,555.00
2023-07-06T05:04:03.917Z,554.00
2023-07-06T05:05:03.732Z,552.00
2023-07-06T05:06:03.706Z,554.00
2023-07-06T05:07:03.699Z,552.00
2023-07-06T05:08:03.703Z,553.00
2023-07-06T05:09:03.678Z,553.00
2023-07-06T05:10:03.653Z,554.00
2023-07-06T05:11:03.607Z,556.00
2023-07-06T05:12:03.586Z,557.00
2023-07-06T05:13:03.568Z,560.00
2023-07-06T05:14:03.629Z,559.00
2023-07-06T05:15:03.512Z,558.00
2023-07-06T05:16:03.492Z,559.00
2023-07-06T05:17:03.547Z,559.00
2023-07-06T05:18:03.546Z,556.00
2023-07-06T05:19:03.436Z,557.00
2023-07-06T05:20:03.388Z,556.00
2023-07-06T05:21:03.386Z,557.00
2023-07-06T05:22:03.382Z,557.00
2023-07-06T05:23:03.401Z,555.00
2023-07-06T05:24:03.431Z,556.00
2023-07-06T05:25:03.739Z,559.00
2023-07-06T05:26:03.416Z,560.00
2023-07-06T05:27:03.404Z,565.00
2023-07-06T05:28:03.388Z,567.00
2023-07-06T05:29:03.361Z,566.00
2023-07-06T05:30:03.352Z,565.00
2023-07-06T05:31:03.569Z,563.00
2023-07-06T05:32:03.391Z,561.00
2023-07-06T05:33:03.407Z,559.00
2023-07-06T05:34:03.430Z,558.00
2023-07-06T05:35:03.434Z,559.00
2023-07-06T05:36:03.468Z,556.00
2023-07-06T05:37:03.438Z,557.00
2023-07-06T05:38:03.418Z,557.00
2023-07-06T05:39:03.410Z,557.00
2023-07-06T05:40:03.379Z,557.00
2023-07-06T05:41:03.372Z,557.00
2023-07-06T05:42:03.310Z,557.00
2023-07-06T05:43:03.279Z,559.00
2023-07-06T05:44:03.261Z,560.00
2023-07-06T05:45:03.262Z,559.00
2023-07-06T05:46:03.248Z,559.00
2023-07-06T05:47:03.223Z,556.00
2023-07-06T05:48:03.263Z,557.00
2023-07-06T05:49:03.196Z,556.00
2023-07-06T05:50:03.229Z,556.00
2023-07-06T05:51:03.182Z,553.00
2023-07-06T05:52:03.135Z,553.00
2023-07-06T05:53:03.155Z,551.00
2023-07-06T05:54:05.272Z,549.00
2023-07-06T05:55:03.093Z,548.00
2023-07-06T05:56:03.089Z,547.00
2023-07-06T05:57:03.092Z,550.00
2023-07-06T05:58:03.121Z,549.00
2023-07-06T05:59:03.151Z,552.00
2023-07-06T06:00:03.167Z,552.00
2023-07-06T06:01:03.142Z,553.00
2023-07-06T06:02:03.138Z,556.00
2023-07-06T06:03:03.168Z,556.00
2023-07-06T06:04:03.132Z,554.00
2023-07-06T06:05:03.054Z,551.00
2023-07-06T06:06:03.024Z,548.00
2023-07-06T06:07:03.030Z,551.00
2023-07-06T06:08:02.997Z,551.00
2023-07-06T06:09:03.000Z,550.00
2023-07-06T06:10:02.972Z,548.00
2023-07-06T06:11:02.950Z,547.00
2023-07-06T06:12:02.925Z,551.00
2023-07-06T06:13:02.919Z,552.00
2023-07-06T06:14:03.068Z,552.00
2023-07-06T06:15:02.889Z,551.00
2023-07-06T06:16:02.919Z,551.00
2023-07-06T06:17:02.973Z,551.00
2023-07-06T06:18:02.963Z,550.00
2023-07-06T06:19:02.953Z,549.00
2023-07-06T06:20:02.985Z,550.00
2023-07-06T06:21:03.011Z,552.00
2023-07-06T06:22:03.045Z,552.00
2023-07-06T06:23:03.086Z,553.00
2023-07-06T06:24:03.116Z,553.00
2023-07-06T06:25:03.156Z,553.00
2023-07-06T06:26:03.204Z,550.00
2023-07-06T06:27:03.229Z,549.00
2023-07-06T06:28:03.262Z,547.00
2023-07-06T06:29:03.313Z,546.00
2023-07-06T06:30:03.341Z,545.00
2023-07-06T06:31:03.375Z,546.00
2023-07-06T06:32:03.455Z,547.00
2023-07-06T06:33:03.491Z,547.00
2023-07-06T06:34:03.459Z,547.00
2023-07-06T06:35:03.455Z,546.00
2023-07-06T06:36:03.455Z,546.00
2023-07-06T06:37:03.424Z,544.00
2023-07-06T06:38:03.418Z,545.00
2023-07-06T06:39:03.443Z,544.00
2023-07-06T06:40:03.441Z,544.00
2023-07-06T06:41:03.399Z,544.00
2023-07-06T06:42:03.384Z,549.00
2023-07-06T06:43:03.402Z,552.00
2023-07-06T06:44:03.424Z,552.00
2023-07-06T06:45:03.437Z,555.00
2023-07-06T06:46:03.427Z,555.00
2023-07-06T06:47:04.583Z,554.00
2023-07-06T06:48:03.494Z,554.00
2023-07-06T06:49:03.412Z,553.00
2023-07-06T06:50:03.447Z,552.00
2023-07-06T06:51:03.431Z,554.00
2023-07-06T06:52:03.429Z,551.00
2023-07-06T06:53:04.268Z,551.00
2023-07-06T06:54:03.431Z,551.00
2023-07-06T06:55:03.448Z,548.00
2023-07-06T06:56:03.449Z,545.00
2023-07-06T06:57:03.492Z,546.00
2023-07-06T06:58:03.524Z,548.00
2023-07-06T06:59:03.553Z,549.00
2023-07-06T07:00:03.550Z,549.00
2023-07-06T07:01:03.519Z,550.00
2023-07-06T07:02:04.422Z,554.00
2023-07-06T07:03:03.516Z,553.00
2023-07-06T07:04:03.525Z,552.00
2023-07-06T07:05:03.487Z,556.00
2023-07-06T07:06:03.509Z,554.00
2023-07-06T07:07:03.543Z,554.00
2023-07-06T07:08:03.562Z,553.00
2023-07-06T07:09:03.557Z,552.00
2023-07-06T07:10:03.590Z,549.00
2023-07-06T07:11:14.273Z,553.00
2023-07-06T07:12:04.598Z,555.00
2023-07-06T07:13:03.578Z,556.00
2023-07-06T07:14:03.642Z,555.00
2023-07-06T07:15:03.603Z,556.00
2023-07-06T07:16:03.615Z,557.00
2023-07-06T07:17:03.532Z,555.00
2023-07-06T07:18:03.599Z,555.00
2023-07-06T07:19:03.476Z,556.00
2023-07-06T07:20:03.456Z,559.00
2023-07-06T07:21:03.433Z,557.00
2023-07-06T07:22:03.404Z,556.00
2023-07-06T07:23:03.394Z,556.00
2023-07-06T07:24:03.376Z,556.00
2023-07-06T07:25:03.353Z,556.00
2023-07-06T07:26:03.338Z,554.00
2023-07-06T07:27:03.322Z,551.00
2023-07-06T07:28:03.300Z,550.00
2023-07-06T07:29:03.286Z,552.00
2023-07-06T07:30:03.275Z,551.00
2023-07-06T07:31:03.290Z,550.00
2023-07-06T07:32:03.285Z,551.00
2023-07-06T07:33:03.320Z,551.00
2023-07-06T07:34:03.331Z,555.00
2023-07-06T07:35:03.326Z,555.00
2023-07-06T07:36:03.348Z,552.00
2023-07-06T07:37:03.348Z,553.00
2023-07-06T07:38:03.373Z,551.00
2023-07-06T07:39:03.388Z,550.00
2023-07-06T07:40:03.396Z,552.00
2023-07-06T07:41:03.367Z,550.00
2023-07-06T07:42:03.352Z,550.00
2023-07-06T07:43:03.357Z,554.00
2023-07-06T07:44:03.331Z,554.00
2023-07-06T07:45:03.332Z,553.00
2023-07-06T07:46:03.376Z,552.00
2023-07-06T07:47:03.309Z,551.00
2023-07-06T07:48:03.350Z,551.00
2023-07-06T07:49:03.329Z,551.00
2023-07-06T07:50:03.317Z,552.00
2023-07-06T07:51:03.292Z,553.00
2023-07-06T07:52:03.347Z,553.00
2023-07-06T07:53:03.257Z,554.00
2023-07-06T07:54:03.237Z,553.00
2023-07-06T07:55:03.209Z,551.00
2023-07-06T07:56:03.181Z,550.00
2023-07-06T07:57:03.172Z,549.00
2023-07-06T07:58:03.155Z,549.00
2023-07-06T07:59:03.155Z,548.00
2023-07-06T08:00:03.110Z,547.00
2023-07-06T08:01:03.219Z,548.00
2023-07-06T08:02:03.137Z,547.00
2023-07-06T08:03:03.253Z,548.00
2023-07-06T08:04:03.108Z,549.00
2023-07-06T08:05:03.060Z,550.00
2023-07-06T08:06:02.983Z,550.00
2023-07-06T08:07:03.017Z,552.00
2023-07-06T08:08:03.040Z,550.00
2023-07-06T08:09:03.024Z,550.00
2023-07-06T08:10:03.097Z,550.00
2023-07-06T08:11:03.108Z,552.00
2023-07-06T08:12:03.132Z,554.00
2023-07-06T08:13:03.141Z,552.00
2023-07-06T08:14:03.204Z,552.00
2023-07-06T08:15:03.143Z,552.00
2023-07-06T08:16:03.177Z,548.00
2023-07-06T08:17:03.176Z,545.00
2023-07-06T08:18:03.180Z,545.00
2023-07-06T08:19:12.924Z,545.00
2023-07-06T08:20:40.519Z,545.00
2023-07-06T08:21:40.311Z,546.00
2023-07-06T08:23:03.045Z,541.00
2023-07-06T08:24:03.037Z,542.00
2023-07-06T08:25:03.059Z,543.00
2023-07-06T08:26:02.996Z,539.00
2023-07-06T08:27:02.974Z,538.00
2023-07-06T08:28:02.975Z,538.00
2023-07-06T08:29:02.945Z,538.00
2023-07-06T08:30:02.910Z,535.00
2023-07-06T08:31:02.905Z,535.00
2023-07-06T08:32:02.858Z,536.00
2023-07-06T08:33:02.878Z,536.00
2023-07-06T08:34:02.813Z,540.00
2023-07-06T08:35:02.794Z,541.00
2023-07-06T08:36:02.765Z,542.00
2023-07-06T08:37:02.735Z,543.00
2023-07-06T08:38:02.724Z,545.00
2023-07-06T08:39:02.708Z,543.00
2023-07-06T08:40:02.721Z,543.00
2023-07-06T08:41:02.677Z,542.00
2023-07-06T08:42:02.661Z,542.00
2023-07-06T08:43:02.665Z,544.00
2023-07-06T08:44:02.628Z,542.00
2023-07-06T08:45:02.649Z,542.00
2023-07-06T08:46:02.597Z,543.00
2023-07-06T08:47:02.642Z,544.00
2023-07-06T08:48:02.594Z,544.00
2023-07-06T08:49:02.541Z,543.00
2023-07-06T08:50:02.530Z,544.00
2023-07-06T08:51:02.512Z,546.00
2023-07-06T08:52:02.489Z,543.00
2023-07-06T08:53:02.477Z,541.00
2023-07-06T08:54:02.458Z,541.00
2023-07-06T08:55:02.450Z,540.00
2023-07-06T08:56:02.449Z,537.00
2023-07-06T08:57:02.405Z,538.00
2023-07-06T08:58:02.397Z,539.00
2023-07-06T08:59:02.424Z,539.00
2023-07-06T09:00:02.368Z,540.00
2023-07-06T09:01:02.396Z,539.00
2023-07-06T09:02:02.353Z,539.00
2023-07-06T09:03:02.420Z,540.00
2023-07-06T09:04:02.365Z,539.00
2023-07-06T09:05:02.296Z,542.00
2023-07-06T09:06:02.281Z,544.00
2023-07-06T09:07:02.268Z,546.00
2023-07-06T09:08:02.275Z,546.00
2023-07-06T09:09:02.249Z,548.00
2023-07-06T09:10:17.955Z,553.00
2023-07-06T09:11:16.806Z,550.00
2023-07-06T09:12:03.243Z,550.00
2023-07-06T09:13:02.225Z,550.00
2023-07-06T09:14:02.269Z,549.00
2023-07-06T09:15:02.190Z,546.00
2023-07-06T09:16:02.156Z,547.00
2023-07-06T09:17:02.163Z,547.00
2023-07-06T09:18:02.131Z,545.00
2023-07-06T09:19:02.101Z,546.00
2023-07-06T09:20:02.086Z,547.00
2023-07-06T09:21:02.075Z,545.00
2023-07-06T09:22:02.064Z,544.00
2023-07-06T09:23:02.029Z,546.00
2023-07-06T09:24:02.021Z,546.00
2023-07-06T09:25:01.983Z,546.00
2023-07-06T09:26:01.972Z,546.00
2023-07-06T09:27:02.167Z,545.00
2023-07-06T09:28:01.926Z,544.00
2023-07-06T09:29:01.900Z,546.00
2023-07-06T09:30:02.249Z,547.00
2023-07-06T09:31:01.886Z,548.00
2023-07-06T09:32:01.857Z,549.00
2023-07-06T09:33:01.903Z,550.00
2023-07-06T09:34:01.833Z,549.00
2023-07-06T09:35:01.808Z,549.00
2023-07-06T09:36:02.038Z,552.00
2023-07-06T09:37:01.768Z,550.00
2023-07-06T09:38:01.773Z,550.00
2023-07-06T09:39:01.726Z,551.00
2023-07-06T09:40:01.747Z,553.00
2023-07-06T09:41:01.694Z,554.00
2023-07-06T09:42:01.671Z,553.00
2023-07-06T09:43:01.652Z,553.00
2023-07-06T09:44:01.774Z,552.00
2023-07-06T09:45:01.632Z,552.00
2023-07-06T09:46:02.618Z,555.00
2023-07-06T09:47:01.617Z,552.00
2023-07-06T09:48:01.609Z,552.00
2023-07-06T09:49:01.521Z,551.00
2023-07-06T09:50:01.503Z,552.00
2023-07-06T09:51:01.493Z,550.00
2023-07-06T09:52:01.496Z,547.00
2023-07-06T09:53:01.447Z,550.00
2023-07-06T09:54:01.458Z,552.00
2023-07-06T09:55:01.475Z,550.00
2023-07-06T09:56:01.376Z,551.00
2023-07-06T09:57:01.377Z,551.00
2023-07-06T09:58:01.344Z,551.00
2023-07-06T09:59:01.342Z,551.00
2023-07-06T10:00:01.307Z,550.00
2023-07-06T10:01:01.282Z,554.00
2023-07-06T10:02:01.301Z,554.00
2023-07-06T10:03:01.279Z,557.00
2023-07-06T10:04:01.215Z,556.00
2023-07-06T10:05:01.231Z,556.00
2023-07-06T10:06:01.170Z,557.00
2023-07-06T10:07:01.172Z,556.00
2023-07-06T10:08:01.117Z,555.00
2023-07-06T10:09:01.101Z,555.00
2023-07-06T10:10:01.076Z,554.00
2023-07-06T10:11:01.101Z,551.00
2023-07-06T10:12:01.028Z,554.00
2023-07-06T10:13:01.017Z,554.00
2023-07-06T10:14:01.072Z,556.00
2023-07-06T10:15:00.977Z,557.00
2023-07-06T10:16:00.935Z,560.00
2023-07-06T10:17:00.933Z,561.00
2023-07-06T10:18:00.944Z,564.00
2023-07-06T10:19:00.975Z,566.00
2023-07-06T10:20:00.939Z,568.00
2023-07-06T10:21:00.925Z,570.00
2023-07-06T10:22:00.962Z,568.00
2023-07-06T10:23:00.988Z,567.00
2023-07-06T10:24:01.029Z,565.00
2023-07-06T10:25:01.040Z,564.00
2023-07-06T10:26:02.139Z,562.00
2023-07-06T10:27:01.115Z,563.00
2023-07-06T10:28:01.171Z,566.00
2023-07-06T10:29:01.164Z,565.00
2023-07-06T10:30:01.193Z,568.00
2023-07-06T10:31:01.233Z,567.00
2023-07-06T10:32:01.284Z,568.00
2023-07-06T10:33:01.304Z,566.00
2023-07-06T10:34:01.299Z,566.00
2023-07-06T10:35:01.340Z,567.00
2023-07-06T10:36:01.372Z,567.00
2023-07-06T10:37:01.393Z,568.00
2023-07-06T10:38:01.418Z,570.00
2023-07-06T10:39:01.446Z,569.00
2023-07-06T10:40:01.482Z,570.00
2023-07-06T10:41:01.502Z,571.00
2023-07-06T10:42:01.536Z,572.00
2023-07-06T10:43:01.549Z,574.00
2023-07-06T10:44:01.592Z,573.00
2023-07-06T10:45:01.637Z,571.00
2023-07-06T10:46:01.742Z,567.00
2023-07-06T10:47:01.675Z,567.00
2023-07-06T10:48:01.747Z,566.00
2023-07-06T10:49:01.738Z,566.00
2023-07-06T10:50:01.776Z,568.00
2023-07-06T10:51:01.813Z,568.00
2023-07-06T10:52:01.815Z,568.00
2023-07-06T10:53:01.854Z,568.00
2023-07-06T10:54:01.891Z,569.00
2023-07-06T10:55:01.909Z,568.00
2023-07-06T10:56:01.928Z,568.00
2023-07-06T10:57:01.966Z,565.00
2023-07-06T10:58:01.978Z,566.00
2023-07-06T10:59:01.989Z,567.00
2023-07-06T11:00:02.016Z,565.00
2023-07-06T11:01:02.075Z,563.00
2023-07-06T11:02:02.049Z,563.00
2023-07-06T11:03:02.125Z,563.00
2023-07-06T11:04:02.361Z,562.00
2023-07-06T11:05:02.109Z,563.00
2023-07-06T11:06:02.119Z,563.00
2023-07-06T11:07:02.160Z,563.00
2023-07-06T11:08:02.182Z,561.00
2023-07-06T11:09:02.202Z,561.00
2023-07-06T11:10:02.251Z,558.00
2023-07-06T11:11:02.290Z,557.00
2023-07-06T11:12:02.290Z,556.00
2023-07-06T11:13:02.294Z,554.00
2023-07-06T11:14:02.344Z,552.00
2023-07-06T11:15:02.311Z,555.00
2023-07-06T11:16:05.267Z,555.00
2023-07-06T11:17:02.239Z,555.00
2023-07-06T11:18:02.319Z,552.00
2023-07-06T11:19:02.209Z,552.00
2023-07-06T11:20:02.200Z,551.00
2023-07-06T11:21:02.169Z,549.00
2023-07-06T11:22:02.146Z,547.00
2023-07-06T11:23:02.322Z,548.00
2023-07-06T11:24:02.103Z,549.00
2023-07-06T11:25:02.070Z,551.00
2023-07-06T11:26:02.060Z,548.00
2023-07-06T11:27:02.034Z,547.00
2023-07-06T11:28:02.013Z,548.00
2023-07-06T11:29:01.995Z,549.00
2023-07-06T11:30:01.965Z,549.00
2023-07-06T11:31:01.952Z,550.00
2023-07-06T11:32:01.911Z,550.00
2023-07-06T11:33:01.939Z,547.00
2023-07-06T11:34:01.867Z,547.00
2023-07-06T11:35:01.849Z,547.00
2023-07-06T11:36:01.832Z,545.00
2023-07-06T11:37:01.805Z,547.00
2023-07-06T11:38:01.791Z,551.00
2023-07-06T11:39:01.809Z,557.00
2023-07-06T11:40:01.743Z,565.00
2023-07-06T11:41:01.748Z,571.00
2023-07-06T11:42:01.720Z,574.00
2023-07-06T11:43:01.685Z,575.00
2023-07-06T11:44:01.670Z,574.00
2023-07-06T11:45:01.656Z,573.00
2023-07-06T11:46:01.598Z,571.00
2023-07-06T11:47:03.364Z,569.00
2023-07-06T11:48:01.647Z,568.00
2023-07-06T11:49:01.546Z,566.00
2023-07-06T11:50:01.533Z,564.00
2023-07-06T11:51:01.514Z,562.00
2023-07-06T11:52:01.508Z,561.00
2023-07-06T11:53:01.480Z,560.00
2023-07-06T11:54:01.462Z,560.00
2023-07-06T11:55:01.439Z,559.00
2023-07-06T11:56:01.436Z,559.00
2023-07-06T11:57:01.413Z,557.00
2023-07-06T11:58:01.390Z,557.00
2023-07-06T11:59:01.383Z,557.00
2023-07-06T12:00:01.380Z,559.00
2023-07-06T12:01:01.436Z,558.00
2023-07-06T12:02:01.314Z,560.00
2023-07-06T12:03:01.435Z,560.00
2023-07-06T12:04:01.290Z,559.00
2023-07-06T12:05:01.290Z,556.00
2023-07-06T12:06:01.288Z,557.00
2023-07-06T12:07:01.276Z,558.00
2023-07-06T12:08:01.310Z,557.00
2023-07-06T12:09:01.328Z,556.00
2023-07-06T12:10:01.344Z,557.00
2023-07-06T12:11:01.372Z,558.00
2023-07-06T12:12:01.411Z,559.00
2023-07-06T12:13:01.438Z,560.00
2023-07-06T12:14:01.515Z,558.00
2023-07-06T12:15:01.519Z,559.00
2023-07-06T12:16:01.770Z,561.00
2023-07-06T12:17:01.589Z,559.00
2023-07-06T12:18:03.570Z,560.00
2023-07-06T12:19:01.650Z,561.00
2023-07-06T12:20:01.701Z,562.00
2023-07-06T12:21:01.660Z,564.00
2023-07-06T12:22:01.663Z,566.00
2023-07-06T12:23:01.698Z,567.00
2023-07-06T12:24:01.668Z,567.00
2023-07-06T12:25:01.662Z,567.00
2023-07-06T12:26:01.651Z,564.00
2023-07-06T12:27:01.647Z,563.00
2023-07-06T12:28:01.629Z,561.00
2023-07-06T12:29:01.615Z,557.00